MSC Rochelle — D5GE9 — position and weather

sailwx.info

Track history (hours):
 
Tides and Currents Weather Stations Pressure Air Temp Water Temp Dewpoint Dewpoint Depression Visibility Wind Speed Wind Dir Waves Ship Positions

MSC Rochelle

Last reported at 2017-Oct-15 22:41 UTC. Time now 2017-Oct-20 03:33 UTC.
Position N 38°26' W 010°21'.

Length 293 m; draft 9.4 m.

Type: Ship (hazmat cat A). MMSI: 636016476.

Date/timePositionNaut miles runAvg speedWind from/ knotsBaromVisibWave heightAir tempDewpointWater temp
2017-Oct-15 22:41N 38°26' W 010°21'313.8
2017-Oct-15 22:30N 38°25' W 010°18'714.2
2017-Oct-15 22:01N 38°22' W 010°10'713.9
2017-Oct-15 21:31N 38°19' W 010°02'714.1
2017-Oct-15 21:01N 38°15' W 009°54'714.0
2017-Oct-15 20:31N 38°13' W 009°46'713.8
2017-Oct-15 20:00N 38°10' W 009°38'714.0
2017-Oct-15 19:30N 38°06' W 009°30'815.0
2017-Oct-15 19:00N 38°03' W 009°22'815.3
2017-Oct-15 18:30N 37°59' W 009°13'714.7
2017-Oct-15 18:01N 37°56' W 009°05'714.9
2017-Oct-15 17:30N 37°55' W 008°56'4 8.5
2017-Oct-15 17:00N 37°55' W 008°50'1 1.6
2017-Oct-15 16:28N 37°56' W 008°51'0 0.0
2017-Oct-15 15:58N 37°56' W 008°51'0 0.0
2017-Oct-15 15:28N 37°56' W 008°51'0 0.0
2017-Oct-15 14:58N 37°56' W 008°51'0 0.0
2017-Oct-15 13:58N 37°56' W 008°51'0 0.0
2017-Oct-15 13:28N 37°56' W 008°51'0 0.0
2017-Oct-15 12:58N 37°56' W 008°51'0 0.0
2017-Oct-15 12:28N 37°56' W 008°51'0 0.0
2017-Oct-15 11:58N 37°56' W 008°51'0 0.0
2017-Oct-15 11:28N 37°56' W 008°51'0 0.0
2017-Oct-15 10:58N 37°56' W 008°51'0 0.0
2017-Oct-15 10:28N 37°56' W 008°51'0 0.0
2017-Oct-15 09:58N 37°56' W 008°51'0 0.0
2017-Oct-15 09:28N 37°56' W 008°51'0 0.0
2017-Oct-15 08:58N 37°56' W 008°51'0 0.0
2017-Oct-15 08:28N 37°56' W 008°51'0 0.0
2017-Oct-15 07:58N 37°56' W 008°51'0 0.0
2017-Oct-15 07:28N 37°56' W 008°51'0 0.0
2017-Oct-15 06:58N 37°56' W 008°51'0 0.0
2017-Oct-15 06:28N 37°56' W 008°51'0 0.0
2017-Oct-15 05:58N 37°56' W 008°51'0 0.0
2017-Oct-15 05:28N 37°56' W 008°51'0 0.0
2017-Oct-15 04:58N 37°56' W 008°51'0 0.5
2017-Oct-15 04:30N 37°56' W 008°51'2 5.0
2017-Oct-15 04:00N 37°53' W 008°51'4 8.8
2017-Oct-15 03:30N 37°49' W 008°53'4 7.9
2017-Oct-15 03:00N 37°46' W 008°55'4 8.1
2017-Oct-15 02:30N 37°42' W 008°57'4 8.2
2017-Oct-15 02:00N 37°38' W 008°59'4 8.1
2017-Oct-15 01:29N 37°34' W 009°01'510.6
2017-Oct-15 01:00N 37°30' W 009°04'611.9
2017-Oct-15 00:30N 37°24' W 009°07'612.1
2017-Oct-15 00:00N 37°19' W 009°11'612.1
2017-Oct-14 23:30N 37°14' W 009°14'612.1
2017-Oct-14 23:01N 37°08' W 009°17'611.9
2017-Oct-14 22:30N 37°03' W 009°20'611.4
2017-Oct-14 22:00N 36°57' W 009°20'611.4
2017-Oct-14 21:30N 36°52' W 009°18'612.2
2017-Oct-14 21:00N 36°47' W 009°13'612.1
2017-Oct-14 20:30N 36°44' W 009°06'612.1
2017-Oct-14 20:00N 36°42' W 008°59'612.3
2017-Oct-14 19:30N 36°40' W 008°52'812.2
2017-Oct-14 18:50N 36°38' W 008°42'411.9
2017-Oct-14 18:28N 36°36' W 008°37'611.6
2017-Oct-14 17:59N 36°35' W 008°31'611.8
2017-Oct-14 17:30N 36°33' W 008°24'612.2
2017-Oct-14 17:00N 36°31' W 008°17'611.7
2017-Oct-14 16:31N 36°29' W 008°10'612.2
2017-Oct-14 16:00N 36°27' W 008°02'5 9.3
2017-Oct-14 15:30N 36°26' W 007°57'6 8.4
2017-Oct-14 14:50N 36°24' W 007°50'3 8.2
2017-Oct-14 14:29N 36°23' W 007°47'14 8.6
2017-Oct-14 12:51N 36°19' W 007°30'3 8.8
2017-Oct-14 12:28N 36°18' W 007°26'6 8.5
2017-Oct-14 11:46N 36°16' W 007°19'3 8.2
2017-Oct-14 11:25N 36°15' W 007°16'5 8.3
2017-Oct-14 10:48N 36°13' W 007°10'3 8.1
2017-Oct-14 10:23N 36°12' W 007°06'4 8.0
2017-Oct-14 09:52N 36°11' W 007°01'26 8.3
2017-Oct-14 06:45N 36°03' W 006°31'1211.8
2017-Oct-14 05:44N 35°59' W 006°17'412.1
2017-Oct-14 05:24N 35°57' W 006°12'712.2
2017-Oct-14 04:51N 35°57' W 006°04'712.4
2017-Oct-14 04:17N 35°58' W 005°55'1511.7
2017-Oct-14 03:02N 35°58' W 005°37'010.8
2017-Oct-14 03:00N 35°58' W 005°37'510.7
2017-Oct-14 02:30N 35°59' W 005°30'611.4
2017-Oct-14 02:00N 36°01' W 005°24'612.0
2017-Oct-14 01:30N 36°02' W 005°17'611.6
2017-Oct-14 01:00N 36°04' W 005°10'3411.1
2017-Oct-13 21:58N 36°09' W 004°28'610.3
2017-Oct-13 21:23N 36°10' W 004°21'410.5
2017-Oct-13 20:58N 36°10' W 004°15'510.9
2017-Oct-13 20:30N 36°11' W 004°09'610.9
2017-Oct-13 19:55N 36°12' W 004°01'15510.3
2017-Oct-13 04:47N 37°14' W 001°04'411.8
2017-Oct-13 04:28N 37°16' W 000°60'711.7
2017-Oct-13 03:53N 37°21' W 000°53'511.6
2017-Oct-13 03:29N 37°23' W 000°49'611.6
2017-Oct-13 03:00N 37°27' W 000°44'611.7
2017-Oct-13 02:29N 37°31' W 000°38'611.5
2017-Oct-13 02:00N 37°35' W 000°33'611.6
2017-Oct-13 01:30N 37°40' W 000°29'611.6
2017-Oct-13 01:00N 37°45' W 000°25'611.6
2017-Oct-13 00:30N 37°50' W 000°21'611.7
2017-Oct-13 00:00N 37°55' W 000°17'611.8
2017-Oct-12 23:30N 37°60' W 000°13'611.7
2017-Oct-12 23:00N 38°04' W 000°09'611.7
2017-Oct-12 22:30N 38°09' W 000°05'1111.6
2017-Oct-12 21:32N 38°19' E 000°03'011.5
2017-Oct-12 21:30N 38°19' E 000°03'611.5
2017-Oct-12 21:00N 38°24' E 000°07'611.5
2017-Oct-12 20:30N 38°29' E 000°11'611.3
2017-Oct-12 20:00N 38°33' E 000°15'511.0
2017-Oct-12 19:30N 38°38' E 000°19'710.6
2017-Oct-12 18:49N 38°44' E 000°24'310.7
2017-Oct-12 18:30N 38°47' E 000°22'510.5
2017-Oct-12 17:59N 38°51' E 000°18'  
2017-Oct-10 10:23N 41°19' E 002°09'1 3.0
2017-Oct-10 10:00N 41°18' E 002°11'12 8.9
2017-Oct-10 08:40N 41°07' E 002°04'214.3
2017-Oct-10 08:30N 41°05' E 002°03'714.4
2017-Oct-10 08:00N 40°59' E 001°59'20014.7
2017-Oct-09 18:25N 38°03' W 000°05'715.5
2017-Oct-09 17:59N 37°57' W 000°09'1315.5
2017-Oct-09 17:08N 37°47' W 000°19'215.5
2017-Oct-09 17:00N 37°45' W 000°20'715.4
2017-Oct-09 16:30N 37°39' W 000°26'714.4
2017-Oct-09 16:00N 37°33' W 000°31'714.3
2017-Oct-09 15:30N 37°28' W 000°38'714.7
2017-Oct-09 15:00N 37°23' W 000°45'714.7
2017-Oct-09 14:30N 37°18' W 000°52'714.8
2017-Oct-09 14:00N 37°13' W 000°59'24715.3
2017-Oct-08 21:49N 35°55' W 005°51'517.1
2017-Oct-08 21:30N 35°55' W 005°57'1017.3
2017-Oct-08 20:55N 35°54' W 006°10'1117.4
2017-Oct-08 20:18N 35°56' W 006°23'517.2
2017-Oct-08 20:00N 35°57' W 006°29'816.9
2017-Oct-08 19:30N 35°59' W 006°39'815.7
2017-Oct-08 18:59N 36°01' W 006°49'1715.5
2017-Oct-08 17:53N 36°06' W 007°09'715.9
2017-Oct-08 17:26N 36°08' W 007°18'715.6
2017-Oct-08 16:59N 36°10' W 007°26'815.9
2017-Oct-08 16:30N 36°12' W 007°35'916.1
2017-Oct-08 15:58N 36°14' W 007°46'715.8
2017-Oct-08 15:30N 36°16' W 007°54'3115.7
2017-Oct-08 13:33N 36°24' W 008°31'115.6
2017-Oct-08 13:27N 36°24' W 008°33'815.8
2017-Oct-08 12:59N 36°26' W 008°42'816.0
2017-Oct-08 12:30N 36°28' W 008°51'815.6
2017-Oct-08 12:00N 36°31' W 009°00'816.3
2017-Oct-08 11:31N 36°33' W 009°10'816.5
2017-Oct-08 11:01N 36°36' W 009°19'816.6
2017-Oct-08 10:30N 36°43' W 009°26'816.0
2017-Oct-08 10:00N 36°49' W 009°32'816.4
2017-Oct-08 09:30N 36°57' W 009°34'816.0
2017-Oct-08 09:01N 37°05' W 009°30'816.9
2017-Oct-08 08:30N 37°12' W 009°24'816.9
2017-Oct-08 08:00N 37°19' W 009°19'816.9
2017-Oct-08 07:30N 37°26' W 009°13'917.4
2017-Oct-08 07:01N 37°33' W 009°07'917.3
2017-Oct-08 06:30N 37°41' W 009°02'816.8
2017-Oct-08 06:00N 37°48' W 008°55'816.0
2017-Oct-08 05:30N 37°54' W 008°50'2 3.2
2017-Oct-08 04:59N 37°56' W 008°51'0 0.0
2017-Oct-08 04:29N 37°56' W 008°51'0 0.0
2017-Oct-08 03:59N 37°56' W 008°51'0 0.0
2017-Oct-08 03:29N 37°56' W 008°51'0 0.0
2017-Oct-08 02:59N 37°56' W 008°51'0 0.0
2017-Oct-08 02:29N 37°56' W 008°51'0 0.0
2017-Oct-08 01:59N 37°56' W 008°51'0 0.0
2017-Oct-08 01:26N 37°56' W 008°51'0 0.0
2017-Oct-08 00:59N 37°56' W 008°51'0 0.0
2017-Oct-08 00:29N 37°56' W 008°51'0 0.0
2017-Oct-07 23:59N 37°56' W 008°51'0 0.0
2017-Oct-07 23:29N 37°56' W 008°51'0 0.1
2017-Oct-07 23:01N 37°56' W 008°51'1 2.9
2017-Oct-07 22:31N 37°55' W 008°50'2 4.7
2017-Oct-07 22:00N 37°54' W 008°53'4 7.4
2017-Oct-07 21:31N 37°54' W 008°58'510.8
2017-Oct-07 21:00N 37°55' W 009°05'611.6
2017-Oct-07 20:30N 37°55' W 009°12'4 7.8
2017-Oct-07 20:00N 37°56' W 009°17'4 8.5
2017-Oct-07 19:30N 37°56' W 009°22'611.1
2017-Oct-07 19:00N 37°57' W 009°29'510.2
2017-Oct-07 18:30N 37°57' W 009°36'510.1
2017-Oct-07 18:00N 38°00' W 009°41'510.6
2017-Oct-07 17:30N 38°02' W 009°47'510.8
2017-Oct-07 17:00N 38°03' W 009°54'611.0
2017-Oct-07 16:30N 38°04' W 010°01'611.4
2017-Oct-07 16:00N 38°06' W 010°08'611.9
2017-Oct-07 15:30N 38°07' W 010°15'612.2
2017-Oct-07 15:00N 38°08' W 010°23'612.0
2017-Oct-07 14:30N 38°10' W 010°30'611.6
2017-Oct-07 14:00N 38°11' W 010°37'611.1
2017-Oct-07 13:30N 38°12' W 010°44'611.1
2017-Oct-07 13:00N 38°13' W 010°51'611.4
2017-Oct-07 12:30N 38°15' W 010°58'611.6
2017-Oct-07 12:00N 38°16' W 011°06'611.6
2017-Oct-07 11:30N 38°18' W 011°13'612.2
2017-Oct-07 11:00N 38°19' W 011°20'612.4
2017-Oct-07 10:30N 38°20' W 011°28'612.4
2017-Oct-07 10:00N 38°22' W 011°36'612.4
2017-Oct-07 09:30N 38°23' W 011°43'612.3
2017-Oct-07 09:00N 38°25' W 011°51'612.2
2017-Oct-07 08:30N 38°26' W 011°59'612.3
2017-Oct-07 08:00N 38°27' W 012°06'612.2
2017-Oct-07 07:30N 38°29' W 012°14'612.0
2017-Oct-07 07:00N 38°30' W 012°21'612.1
2017-Oct-07 06:30N 38°32' W 012°29'612.1
2017-Oct-07 06:00N 38°33' W 012°36'611.8
2017-Oct-07 05:30N 38°34' W 012°44'611.6
2017-Oct-07 05:00N 38°35' W 012°51'611.6
2017-Oct-07 04:30N 38°37' W 012°58'611.7
2017-Oct-07 04:00N 38°38' W 013°05'611.9
2017-Oct-07 03:30N 38°40' W 013°13'612.1
2017-Oct-07 03:00N 38°41' W 013°20'812.0
2017-Oct-07 02:19N 38°43' W 013°31'2012.0
2017-Oct-07 00:37N 38°48' W 013°56'211.8
2017-Oct-07 00:26N 38°48' W 013°59'611.9
2017-Oct-06 23:58N 38°50' W 014°06'612.1
2017-Oct-06 23:30N 38°51' W 014°13'4812.0
2017-Oct-06 19:32N 39°02' W 015°12'112.3
2017-Oct-06 19:28N 39°02' W 015°13'612.3
2017-Oct-06 19:00N 39°03' W 015°21'612.3
2017-Oct-06 18:30N 39°05' W 015°28'1412.4
2017-Oct-06 17:25N 39°08' W 015°45'9812.4
2017-Oct-06 09:30N 39°30' W 017°49'1312.2
2017-Oct-06 08:29N 39°33' W 018°04'612.0
2017-Oct-06 07:59N 39°34' W 018°12'612.0
2017-Oct-06 07:30N 39°36' W 018°19'7711.6
2017-Oct-06 00:53N 39°53' W 019°56'411.6
2017-Oct-06 00:30N 39°54' W 020°02'1211.6
2017-Oct-05 23:27N 39°57' W 020°17'511.7
2017-Oct-05 23:00N 39°59' W 020°24'  
Track history (hours):
 
Tides and Currents Weather Stations Pressure Air Temp Water Temp Dewpoint Dewpoint Depression Visibility Wind Speed Wind Dir Waves Ship Positions

MSC Rochelle

Last reported at 2017-Oct-15 22:41 UTC. Time now 2017-Oct-20 03:33 UTC.
Position N 38°26' W 010°21'.

Length 293 m; draft 9.4 m.

Type: Ship (hazmat cat A). MMSI: 636016476.

Date/timePositionNaut miles runAvg speedWind from/ knotsBaromVisibWave heightAir tempDewpointWater temp
2017-Oct-15 22:41N 38°26' W 010°21'313.8
2017-Oct-15 22:30N 38°25' W 010°18'714.2
2017-Oct-15 22:01N 38°22' W 010°10'713.9
2017-Oct-15 21:31N 38°19' W 010°02'714.1
2017-Oct-15 21:01N 38°15' W 009°54'714.0
2017-Oct-15 20:31N 38°13' W 009°46'713.8
2017-Oct-15 20:00N 38°10' W 009°38'714.0
2017-Oct-15 19:30N 38°06' W 009°30'815.0
2017-Oct-15 19:00N 38°03' W 009°22'815.3
2017-Oct-15 18:30N 37°59' W 009°13'714.7
2017-Oct-15 18:01N 37°56' W 009°05'714.9
2017-Oct-15 17:30N 37°55' W 008°56'4 8.5
2017-Oct-15 17:00N 37°55' W 008°50'1 1.6
2017-Oct-15 16:28N 37°56' W 008°51'0 0.0
2017-Oct-15 15:58N 37°56' W 008°51'0 0.0
2017-Oct-15 15:28N 37°56' W 008°51'0 0.0
2017-Oct-15 14:58N 37°56' W 008°51'0 0.0
2017-Oct-15 13:58N 37°56' W 008°51'0 0.0
2017-Oct-15 13:28N 37°56' W 008°51'0 0.0
2017-Oct-15 12:58N 37°56' W 008°51'0 0.0
2017-Oct-15 12:28N 37°56' W 008°51'0 0.0
2017-Oct-15 11:58N 37°56' W 008°51'0 0.0
2017-Oct-15 11:28N 37°56' W 008°51'0 0.0
2017-Oct-15 10:58N 37°56' W 008°51'0 0.0
2017-Oct-15 10:28N 37°56' W 008°51'0 0.0
2017-Oct-15 09:58N 37°56' W 008°51'0 0.0
2017-Oct-15 09:28N 37°56' W 008°51'0 0.0
2017-Oct-15 08:58N 37°56' W 008°51'0 0.0
2017-Oct-15 08:28N 37°56' W 008°51'0 0.0
2017-Oct-15 07:58N 37°56' W 008°51'0 0.0
2017-Oct-15 07:28N 37°56' W 008°51'0 0.0
2017-Oct-15 06:58N 37°56' W 008°51'0 0.0
2017-Oct-15 06:28N 37°56' W 008°51'0 0.0
2017-Oct-15 05:58N 37°56' W 008°51'0 0.0
2017-Oct-15 05:28N 37°56' W 008°51'0 0.0
2017-Oct-15 04:58N 37°56' W 008°51'0 0.5
2017-Oct-15 04:30N 37°56' W 008°51'2 5.0
2017-Oct-15 04:00N 37°53' W 008°51'4 8.8
2017-Oct-15 03:30N 37°49' W 008°53'4 7.9
2017-Oct-15 03:00N 37°46' W 008°55'4 8.1
2017-Oct-15 02:30N 37°42' W 008°57'4 8.2
2017-Oct-15 02:00N 37°38' W 008°59'4 8.1
2017-Oct-15 01:29N 37°34' W 009°01'510.6
2017-Oct-15 01:00N 37°30' W 009°04'611.9
2017-Oct-15 00:30N 37°24' W 009°07'612.1
2017-Oct-15 00:00N 37°19' W 009°11'612.1
2017-Oct-14 23:30N 37°14' W 009°14'612.1
2017-Oct-14 23:01N 37°08' W 009°17'611.9
2017-Oct-14 22:30N 37°03' W 009°20'611.4
2017-Oct-14 22:00N 36°57' W 009°20'611.4
2017-Oct-14 21:30N 36°52' W 009°18'612.2
2017-Oct-14 21:00N 36°47' W 009°13'612.1
2017-Oct-14 20:30N 36°44' W 009°06'612.1
2017-Oct-14 20:00N 36°42' W 008°59'612.3
2017-Oct-14 19:30N 36°40' W 008°52'812.2
2017-Oct-14 18:50N 36°38' W 008°42'411.9
2017-Oct-14 18:28N 36°36' W 008°37'611.6
2017-Oct-14 17:59N 36°35' W 008°31'611.8
2017-Oct-14 17:30N 36°33' W 008°24'612.2
2017-Oct-14 17:00N 36°31' W 008°17'611.7
2017-Oct-14 16:31N 36°29' W 008°10'612.2
2017-Oct-14 16:00N 36°27' W 008°02'5 9.3
2017-Oct-14 15:30N 36°26' W 007°57'6 8.4
2017-Oct-14 14:50N 36°24' W 007°50'3 8.2
2017-Oct-14 14:29N 36°23' W 007°47'14 8.6
2017-Oct-14 12:51N 36°19' W 007°30'3 8.8
2017-Oct-14 12:28N 36°18' W 007°26'6 8.5
2017-Oct-14 11:46N 36°16' W 007°19'3 8.2
2017-Oct-14 11:25N 36°15' W 007°16'5 8.3
2017-Oct-14 10:48N 36°13' W 007°10'3 8.1
2017-Oct-14 10:23N 36°12' W 007°06'4 8.0
2017-Oct-14 09:52N 36°11' W 007°01'26 8.3
2017-Oct-14 06:45N 36°03' W 006°31'1211.8
2017-Oct-14 05:44N 35°59' W 006°17'412.1
2017-Oct-14 05:24N 35°57' W 006°12'712.2
2017-Oct-14 04:51N 35°57' W 006°04'712.4
2017-Oct-14 04:17N 35°58' W 005°55'1511.7
2017-Oct-14 03:02N 35°58' W 005°37'010.8
2017-Oct-14 03:00N 35°58' W 005°37'510.7
2017-Oct-14 02:30N 35°59' W 005°30'611.4
2017-Oct-14 02:00N 36°01' W 005°24'612.0
2017-Oct-14 01:30N 36°02' W 005°17'611.6
2017-Oct-14 01:00N 36°04' W 005°10'3411.1
2017-Oct-13 21:58N 36°09' W 004°28'610.3
2017-Oct-13 21:23N 36°10' W 004°21'410.5
2017-Oct-13 20:58N 36°10' W 004°15'510.9
2017-Oct-13 20:30N 36°11' W 004°09'610.9
2017-Oct-13 19:55N 36°12' W 004°01'15510.3
2017-Oct-13 04:47N 37°14' W 001°04'411.8
2017-Oct-13 04:28N 37°16' W 000°60'711.7
2017-Oct-13 03:53N 37°21' W 000°53'511.6
2017-Oct-13 03:29N 37°23' W 000°49'611.6
2017-Oct-13 03:00N 37°27' W 000°44'611.7
2017-Oct-13 02:29N 37°31' W 000°38'611.5
2017-Oct-13 02:00N 37°35' W 000°33'611.6
2017-Oct-13 01:30N 37°40' W 000°29'611.6
2017-Oct-13 01:00N 37°45' W 000°25'611.6
2017-Oct-13 00:30N 37°50' W 000°21'611.7
2017-Oct-13 00:00N 37°55' W 000°17'611.8
2017-Oct-12 23:30N 37°60' W 000°13'611.7
2017-Oct-12 23:00N 38°04' W 000°09'611.7
2017-Oct-12 22:30N 38°09' W 000°05'1111.6
2017-Oct-12 21:32N 38°19' E 000°03'011.5
2017-Oct-12 21:30N 38°19' E 000°03'611.5
2017-Oct-12 21:00N 38°24' E 000°07'611.5
2017-Oct-12 20:30N 38°29' E 000°11'611.3
2017-Oct-12 20:00N 38°33' E 000°15'511.0
2017-Oct-12 19:30N 38°38' E 000°19'710.6
2017-Oct-12 18:49N 38°44' E 000°24'310.7
2017-Oct-12 18:30N 38°47' E 000°22'510.5
2017-Oct-12 17:59N 38°51' E 000°18'  
2017-Oct-10 10:23N 41°19' E 002°09'1 3.0
2017-Oct-10 10:00N 41°18' E 002°11'12 8.9
2017-Oct-10 08:40N 41°07' E 002°04'214.3
2017-Oct-10 08:30N 41°05' E 002°03'714.4
2017-Oct-10 08:00N 40°59' E 001°59'20014.7
2017-Oct-09 18:25N 38°03' W 000°05'715.5
2017-Oct-09 17:59N 37°57' W 000°09'1315.5
2017-Oct-09 17:08N 37°47' W 000°19'215.5
2017-Oct-09 17:00N 37°45' W 000°20'715.4
2017-Oct-09 16:30N 37°39' W 000°26'714.4
2017-Oct-09 16:00N 37°33' W 000°31'714.3
2017-Oct-09 15:30N 37°28' W 000°38'714.7
2017-Oct-09 15:00N 37°23' W 000°45'714.7
2017-Oct-09 14:30N 37°18' W 000°52'714.8
2017-Oct-09 14:00N 37°13' W 000°59'24715.3
2017-Oct-08 21:49N 35°55' W 005°51'517.1
2017-Oct-08 21:30N 35°55' W 005°57'1017.3
2017-Oct-08 20:55N 35°54' W 006°10'1117.4
2017-Oct-08 20:18N 35°56' W 006°23'517.2
2017-Oct-08 20:00N 35°57' W 006°29'816.9
2017-Oct-08 19:30N 35°59' W 006°39'815.7
2017-Oct-08 18:59N 36°01' W 006°49'1715.5
2017-Oct-08 17:53N 36°06' W 007°09'715.9
2017-Oct-08 17:26N 36°08' W 007°18'715.6
2017-Oct-08 16:59N 36°10' W 007°26'815.9
2017-Oct-08 16:30N 36°12' W 007°35'916.1
2017-Oct-08 15:58N 36°14' W 007°46'715.8
2017-Oct-08 15:30N 36°16' W 007°54'3115.7
2017-Oct-08 13:33N 36°24' W 008°31'115.6
2017-Oct-08 13:27N 36°24' W 008°33'815.8
2017-Oct-08 12:59N 36°26' W 008°42'816.0
2017-Oct-08 12:30N 36°28' W 008°51'815.6
2017-Oct-08 12:00N 36°31' W 009°00'816.3
2017-Oct-08 11:31N 36°33' W 009°10'816.5
2017-Oct-08 11:01N 36°36' W 009°19'816.6
2017-Oct-08 10:30N 36°43' W 009°26'816.0
2017-Oct-08 10:00N 36°49' W 009°32'816.4
2017-Oct-08 09:30N 36°57' W 009°34'816.0
2017-Oct-08 09:01N 37°05' W 009°30'816.9
2017-Oct-08 08:30N 37°12' W 009°24'816.9
2017-Oct-08 08:00N 37°19' W 009°19'816.9
2017-Oct-08 07:30N 37°26' W 009°13'917.4
2017-Oct-08 07:01N 37°33' W 009°07'917.3
2017-Oct-08 06:30N 37°41' W 009°02'816.8
2017-Oct-08 06:00N 37°48' W 008°55'816.0
2017-Oct-08 05:30N 37°54' W 008°50'2 3.2
2017-Oct-08 04:59N 37°56' W 008°51'0 0.0
2017-Oct-08 04:29N 37°56' W 008°51'0 0.0
2017-Oct-08 03:59N 37°56' W 008°51'0 0.0
2017-Oct-08 03:29N 37°56' W 008°51'0 0.0
2017-Oct-08 02:59N 37°56' W 008°51'0 0.0
2017-Oct-08 02:29N 37°56' W 008°51'0 0.0
2017-Oct-08 01:59N 37°56' W 008°51'0 0.0
2017-Oct-08 01:26N 37°56' W 008°51'0 0.0
2017-Oct-08 00:59N 37°56' W 008°51'0 0.0
2017-Oct-08 00:29N 37°56' W 008°51'0 0.0
2017-Oct-07 23:59N 37°56' W 008°51'0 0.0
2017-Oct-07 23:29N 37°56' W 008°51'0 0.1
2017-Oct-07 23:01N 37°56' W 008°51'1 2.9
2017-Oct-07 22:31N 37°55' W 008°50'2 4.7
2017-Oct-07 22:00N 37°54' W 008°53'4 7.4
2017-Oct-07 21:31N 37°54' W 008°58'510.8
2017-Oct-07 21:00N 37°55' W 009°05'611.6
2017-Oct-07 20:30N 37°55' W 009°12'4 7.8
2017-Oct-07 20:00N 37°56' W 009°17'4 8.5
2017-Oct-07 19:30N 37°56' W 009°22'611.1
2017-Oct-07 19:00N 37°57' W 009°29'510.2
2017-Oct-07 18:30N 37°57' W 009°36'510.1
2017-Oct-07 18:00N 38°00' W 009°41'510.6
2017-Oct-07 17:30N 38°02' W 009°47'510.8
2017-Oct-07 17:00N 38°03' W 009°54'611.0
2017-Oct-07 16:30N 38°04' W 010°01'611.4
2017-Oct-07 16:00N 38°06' W 010°08'611.9
2017-Oct-07 15:30N 38°07' W 010°15'612.2
2017-Oct-07 15:00N 38°08' W 010°23'612.0
2017-Oct-07 14:30N 38°10' W 010°30'611.6
2017-Oct-07 14:00N 38°11' W 010°37'611.1
2017-Oct-07 13:30N 38°12' W 010°44'611.1
2017-Oct-07 13:00N 38°13' W 010°51'611.4
2017-Oct-07 12:30N 38°15' W 010°58'611.6
2017-Oct-07 12:00N 38°16' W 011°06'611.6
2017-Oct-07 11:30N 38°18' W 011°13'612.2
2017-Oct-07 11:00N 38°19' W 011°20'612.4
2017-Oct-07 10:30N 38°20' W 011°28'612.4
2017-Oct-07 10:00N 38°22' W 011°36'612.4
2017-Oct-07 09:30N 38°23' W 011°43'612.3
2017-Oct-07 09:00N 38°25' W 011°51'612.2
2017-Oct-07 08:30N 38°26' W 011°59'612.3
2017-Oct-07 08:00N 38°27' W 012°06'612.2
2017-Oct-07 07:30N 38°29' W 012°14'612.0
2017-Oct-07 07:00N 38°30' W 012°21'612.1
2017-Oct-07 06:30N 38°32' W 012°29'612.1
2017-Oct-07 06:00N 38°33' W 012°36'611.8
2017-Oct-07 05:30N 38°34' W 012°44'611.6
2017-Oct-07 05:00N 38°35' W 012°51'611.6
2017-Oct-07 04:30N 38°37' W 012°58'611.7
2017-Oct-07 04:00N 38°38' W 013°05'611.9
2017-Oct-07 03:30N 38°40' W 013°13'612.1
2017-Oct-07 03:00N 38°41' W 013°20'812.0
2017-Oct-07 02:19N 38°43' W 013°31'2012.0
2017-Oct-07 00:37N 38°48' W 013°56'211.8
2017-Oct-07 00:26N 38°48' W 013°59'611.9
2017-Oct-06 23:58N 38°50' W 014°06'612.1
2017-Oct-06 23:30N 38°51' W 014°13'4812.0
2017-Oct-06 19:32N 39°02' W 015°12'112.3
2017-Oct-06 19:28N 39°02' W 015°13'612.3
2017-Oct-06 19:00N 39°03' W 015°21'612.3
2017-Oct-06 18:30N 39°05' W 015°28'1412.4
2017-Oct-06 17:25N 39°08' W 015°45'9812.4
2017-Oct-06 09:30N 39°30' W 017°49'1312.2
2017-Oct-06 08:29N 39°33' W 018°04'612.0
2017-Oct-06 07:59N 39°34' W 018°12'612.0
2017-Oct-06 07:30N 39°36' W 018°19'7711.6
2017-Oct-06 00:53N 39°53' W 019°56'411.6
2017-Oct-06 00:30N 39°54' W 020°02'1211.6
2017-Oct-05 23:27N 39°57' W 020°17'511.7
2017-Oct-05 23:00N 39°59' W 020°24'  

Dump ship's entire track history